Time;durP1;ratioP1;P1;durP2;ratioP2;P2;SDS_P1;SDS_P2;PMS_P1;PMS_P2;Temp;Humidity;BMP_temperature;BMP_pressure;BME280_temperature;BME280_humidity;BME280_pressure;Samples;Min_cycle;Max_cycle;Signal;HPM_P1;HPM_P2
2022/06/18 00:00:56;;;;;;;3.22;2.92;;;20.20;67.00;;;;;;4982675;28;20032;-64
2022/06/18 00:03:23;;;;;;;4.50;2.58;;;20.20;66.50;;;;;;4982459;28;20054;-64
2022/06/18 00:05:50;;;;;;;4.68;2.67;;;20.10;66.50;;;;;;4982568;28;20039;-64
2022/06/18 00:08:22;;;;;;;3.33;2.10;;;20.10;66.70;;;;;;4965492;28;20241;-64
2022/06/18 00:10:50;;;;;;;5.68;2.50;;;20.10;67.10;;;;;;4982627;28;20018;-64
2022/06/18 00:16:03;;;;;;;7.47;2.70;;;20.00;67.70;;;;;;4982237;28;20077;-64
2022/06/18 00:18:28;;;;;;;2.50;2.22;;;20.00;67.50;;;;;;4982328;28;20096;-64
2022/06/18 00:20:54;;;;;;;4.37;2.70;;;19.90;68.60;;;;;;4981657;28;20058;-64
2022/06/18 00:23:20;;;;;;;3.67;1.93;;;19.90;67.30;;;;;;4948973;28;20221;-64
2022/06/18 00:25:51;;;;;;;7.57;2.63;;;19.80;67.50;;;;;;4982215;28;20170;-64
2022/06/18 00:28:23;;;;;;;3.28;2.45;;;19.70;67.90;;;;;;4982152;28;20045;-64
2022/06/18 00:30:49;;;;;;;4.38;2.95;;;19.80;68.30;;;;;;4982322;28;20098;-65
2022/06/18 00:33:15;;;;;;;6.63;2.55;;;19.70;68.30;;;;;;4981862;28;20022;-65
2022/06/18 00:35:41;;;;;;;3.50;2.53;;;19.70;68.30;;;;;;4981452;28;20388;-64
2022/06/18 00:38:11;;;;;;;4.00;2.53;;;19.70;68.50;;;;;;4981846;28;20041;-64
2022/06/18 00:40:40;;;;;;;4.05;2.67;;;19.70;68.30;;;;;;4964913;28;20325;-64
2022/06/18 00:43:46;;;;;;;2.80;2.17;;;19.70;67.10;;;;;;4981785;28;20033;-64
2022/06/18 00:47:07;;;;;;;1.85;1.70;;;19.60;66.90;;;;;;4927308;28;20057;-64
2022/06/18 00:49:55;;;;;;;3.42;2.60;;;19.50;66.10;;;;;;4981558;28;20025;-64
2022/06/18 00:52:27;;;;;;;;;;;19.40;64.90;;;;;;4949469;28;20090;-65
2022/06/18 00:55:15;;;;;;;3.83;2.20;;;19.40;66.80;;;;;;4981169;28;19913;-65
2022/06/18 00:58:02;;;;;;;;;;;19.40;65.90;;;;;;4964900;28;20022;-65
2022/06/18 01:00:37;;;;;;;2.33;2.10;;;19.30;65.80;;;;;;4948322;28;19905;-65
2022/06/18 01:03:03;;;;;;;4.63;2.45;;;19.20;67.00;;;;;;4981618;28;20027;-65
2022/06/18 01:05:38;;;;;;;2.93;2.30;;;19.20;65.50;;;;;;4981842;28;20035;-65
2022/06/18 01:08:11;;;;;;;4.68;2.33;;;19.10;66.90;;;;;;4949266;28;20070;-65
2022/06/18 01:10:41;;;;;;;3.85;1.95;;;19.10;66.50;;;;;;4948886;28;20046;-65
2022/06/18 01:13:10;;;;;;;3.30;2.05;;;19.00;64.90;;;;;;4980763;28;20022;-65
2022/06/18 01:15:37;;;;;;;2.67;2.22;;;19.00;64.30;;;;;;4949288;28;20030;-65
2022/06/18 01:18:03;;;;;;;3.22;2.30;;;19.00;65.90;;;;;;4964650;28;20033;-65
2022/06/18 01:20:29;;;;;;;4.68;2.20;;;18.90;65.60;;;;;;4964721;28;20090;-65
2022/06/18 01:23:23;;;;;;;3.37;2.20;;;18.90;64.50;;;;;;4948382;28;20031;-65
2022/06/18 01:25:48;;;;;;;3.88;2.25;;;18.80;65.30;;;;;;4956177;28;20453;-64
2022/06/18 01:28:17;;;;;;;2.43;1.90;;;18.80;65.90;;;;;;4964115;28;20036;-65
2022/06/18 01:30:42;;;;;;;5.45;2.40;;;18.80;65.60;;;;;;4980900;28;20194;-64
2022/06/18 01:33:08;;;;;;;3.17;1.87;;;18.80;64.40;;;;;;4948178;28;20029;-65
2022/06/18 01:35:37;;;;;;;2.30;2.10;;;18.70;63.80;;;;;;4964066;28;20210;-65
2022/06/18 01:38:04;;;;;;;2.70;2.00;;;18.50;63.50;;;;;;4964607;28;20253;-65
2022/06/18 01:41:49;;;;;;;3.33;2.05;;;18.40;63.90;;;;;;4948370;28;20266;-64
2022/06/18 01:43:48;;;;;;;2.95;2.58;;;18.30;64.60;;;;;;4967195;28;20054;-65
2022/06/18 01:46:13;;;;;;;2.72;2.25;;;18.30;66.70;;;;;;4948112;28;20043;-64
2022/06/18 01:48:40;;;;;;;7.40;2.73;;;18.30;68.20;;;;;;4981483;28;20379;-65
2022/06/18 01:51:31;;;;;;;5.28;2.72;;;18.30;68.70;;;;;;4983409;28;20145;-65
2022/06/18 01:54:01;;;;;;;3.42;2.75;;;18.30;67.60;;;;;;4957257;28;20038;-65
2022/06/18 01:56:30;;;;;;;4.07;2.80;;;18.30;66.50;;;;;;4951151;28;20034;-64
2022/06/18 01:59:13;;;;;;;6.90;2.88;;;18.30;67.70;;;;;;4951736;28;20026;-64
2022/06/18 02:01:41;;;;;;;8.75;2.63;;;18.20;67.20;;;;;;4953032;28;20039;-65
2022/06/18 02:04:07;;;;;;;2.83;2.28;;;18.20;67.40;;;;;;4966936;28;20046;-65
2022/06/18 02:06:36;;;;;;;4.20;2.37;;;18.20;67.80;;;;;;4985157;28;20027;-65
2022/06/18 02:09:04;;;;;;;4.82;2.60;;;18.20;67.90;;;;;;4967230;28;20085;-64
2022/06/18 02:11:29;;;;;;;3.65;2.45;;;18.20;67.80;;;;;;4967521;28;20042;-65
2022/06/18 02:14:05;;;;;;;3.10;2.10;;;18.20;68.20;;;;;;4984441;28;20258;-66
2022/06/18 02:16:34;;;;;;;3.70;2.13;;;18.10;66.00;;;;;;4936904;28;20031;-65
2022/06/18 02:19:01;;;;;;;6.78;2.60;;;18.00;65.40;;;;;;4967406;28;20030;-65
2022/06/18 02:21:26;;;;;;;2.45;2.10;;;18.00;65.40;;;;;;4950241;28;20030;-66
2022/06/18 02:23:53;;;;;;;3.53;2.10;;;17.90;65.20;;;;;;4992140;28;20049;-65
2022/06/18 02:26:20;;;;;;;;;;;17.90;64.90;;;;;;4983703;28;20030;-65
2022/06/18 02:28:46;;;;;;;5.83;2.70;;;17.90;65.50;;;;;;4975454;28;19906;-65
2022/06/18 02:31:16;;;;;;;2.87;2.27;;;17.80;65.30;;;;;;4999863;28;20037;-65
2022/06/18 02:33:57;;;;;;;4.78;2.30;;;17.70;66.80;;;;;;4970577;28;20217;-65
2022/06/18 02:36:35;;;;;;;6.63;2.20;;;17.80;66.20;;;;;;4978469;28;20026;-65
2022/06/18 02:39:07;;;;;;;3.28;2.28;;;17.80;68.00;;;;;;4978354;28;20045;-65
2022/06/18 02:41:34;;;;;;;3.70;1.63;;;17.80;66.60;;;;;;5003697;28;20026;-66
2022/06/18 02:44:00;;;;;;;4.57;2.20;;;17.80;65.60;;;;;;5003324;28;20045;-65
2022/06/18 02:46:25;;;;;;;2.33;2.07;;;17.80;66.80;;;;;;5003508;28;20304;-65
2022/06/18 02:48:52;;;;;;;3.27;1.97;;;17.80;66.10;;;;;;5000253;28;20036;-65
2022/06/18 02:51:18;;;;;;;2.35;2.15;;;17.70;66.10;;;;;;4966643;28;20322;-65
2022/06/18 02:53:43;;;;;;;3.00;2.20;;;17.80;67.40;;;;;;4966428;28;20065;-64
2022/06/18 02:56:13;;;;;;;5.03;2.60;;;17.70;66.80;;;;;;4983111;28;20073;-65
2022/06/18 02:58:42;;;;;;;3.00;2.33;;;17.60;67.90;;;;;;4951679;28;20034;-65
2022/06/18 03:01:16;;;;;;;3.55;2.35;;;17.60;67.70;;;;;;4982807;28;20206;-65
2022/06/18 03:03:47;;;;;;;3.47;2.13;;;17.60;66.50;;;;;;4983569;28;20306;-65
2022/06/18 03:06:13;;;;;;;3.65;2.15;;;17.60;69.30;;;;;;4983185;28;20038;-66
2022/06/18 03:08:39;;;;;;;2.58;2.38;;;17.60;67.70;;;;;;4966490;28;20958;-65
2022/06/18 03:13:50;;;;;;;4.20;2.53;;;17.70;68.50;;;;;;4994709;28;20021;-64
2022/06/18 03:16:18;;;;;;;3.60;2.30;;;17.60;69.00;;;;;;5003032;28;20022;-65
2022/06/18 03:18:44;;;;;;;4.93;2.50;;;17.70;69.70;;;;;;5002829;28;20196;-65
2022/06/18 03:21:23;;;;;;;5.33;2.90;;;17.70;70.70;;;;;;4985580;28;20129;-65
2022/06/18 03:23:49;;;;;;;3.42;2.60;;;17.70;70.20;;;;;;4970221;28;20026;-65
2022/06/18 03:26:18;;;;;;;4.00;2.70;;;17.70;70.10;;;;;;5002649;28;20339;-65
2022/06/18 03:28:44;;;;;;;4.55;2.40;;;17.70;70.70;;;;;;5002785;28;20189;-64
2022/06/18 03:31:10;;;;;;;4.83;2.47;;;17.70;70.20;;;;;;5002667;28;20126;-65
2022/06/18 03:33:36;;;;;;;3.55;2.70;;;17.70;69.60;;;;;;5002416;28;20281;-64
2022/06/18 03:36:03;;;;;;;2.90;2.40;;;17.60;69.30;;;;;;5002643;28;20110;-65
2022/06/18 03:38:29;;;;;;;3.92;2.75;;;17.60;70.70;;;;;;4985197;28;20027;-65
2022/06/18 03:40:55;;;;;;;4.73;2.50;;;17.60;71.30;;;;;;5000602;28;20216;-65
2022/06/18 03:43:25;;;;;;;3.50;2.60;;;17.50;70.00;;;;;;4982799;28;20018;-65
2022/06/18 03:45:55;;;;;;;3.25;2.42;;;17.50;70.40;;;;;;4982960;28;20030;-65
2022/06/18 03:48:29;;;;;;;3.17;2.50;;;17.50;71.90;;;;;;4965853;28;20030;-65
2022/06/18 03:50:55;;;;;;;4.22;2.67;;;17.50;72.40;;;;;;4983229;28;20044;-65
2022/06/18 03:53:21;;;;;;;4.13;2.35;;;17.50;71.90;;;;;;4982677;28;20022;-65
2022/06/18 03:55:47;;;;;;;4.07;2.53;;;17.50;72.00;;;;;;4982749;28;20229;-65
2022/06/18 03:58:13;;;;;;;3.38;2.70;;;17.50;71.80;;;;;;4982802;28;20341;-65
2022/06/18 04:00:38;;;;;;;3.05;2.75;;;17.50;72.50;;;;;;4965771;28;20360;-65
2022/06/18 04:03:04;;;;;;;3.70;2.37;;;17.50;72.40;;;;;;4982465;28;20148;-65
2022/06/18 04:05:31;;;;;;;3.70;2.80;;;17.50;71.90;;;;;;4982667;28;20033;-65
2022/06/18 04:07:56;;;;;;;3.55;2.92;;;17.50;72.50;;;;;;4965305;28;20018;-65
2022/06/18 04:10:22;;;;;;;7.93;3.43;;;17.50;72.40;;;;;;4982668;28;20210;-65
2022/06/18 04:12:48;;;;;;;6.47;3.57;;;17.60;72.70;;;;;;4980794;28;20027;-65
2022/06/18 04:15:15;;;;;;;3.30;2.90;;;17.60;73.80;;;;;;4965362;28;20186;-65
2022/06/18 04:17:41;;;;;;;3.40;2.35;;;17.60;73.30;;;;;;4982136;28;20046;-64
2022/06/18 04:20:21;;;;;;;3.50;2.90;;;17.60;72.80;;;;;;4964914;28;20038;-65
2022/06/18 04:22:47;;;;;;;3.30;2.72;;;17.50;72.70;;;;;;4966058;28;20018;-65
2022/06/18 04:25:13;;;;;;;5.80;2.88;;;17.50;72.30;;;;;;4982102;28;20171;-65
2022/06/18 04:27:39;;;;;;;4.63;2.90;;;17.50;73.40;;;;;;4982360;28;20047;-64
2022/06/18 04:30:06;;;;;;;3.40;2.65;;;17.50;74.10;;;;;;4982462;28;20023;-65
2022/06/18 04:32:32;;;;;;;2.97;2.67;;;17.50;73.70;;;;;;4982338;28;20031;-65
2022/06/18 04:34:57;;;;;;;5.50;2.87;;;17.50;74.20;;;;;;4982041;28;20034;-65
2022/06/18 04:37:23;;;;;;;2.83;2.33;;;17.50;73.20;;;;;;4981654;28;20092;-65
2022/06/18 04:39:49;;;;;;;3.23;2.73;;;17.50;74.70;;;;;;4982254;28;20031;-64
2022/06/18 04:42:14;;;;;;;4.50;2.60;;;17.50;74.90;;;;;;4981953;28;20042;-65
2022/06/18 04:44:40;;;;;;;3.93;2.60;;;17.60;74.70;;;;;;4964632;28;20019;-64
2022/06/18 04:47:07;;;;;;;2.77;2.43;;;17.60;74.30;;;;;;4981580;28;20018;-65
2022/06/18 04:49:33;;;;;;;2.47;2.17;;;17.70;74.90;;;;;;4964830;28;20026;-65
2022/06/18 04:51:59;;;;;;;2.70;2.03;;;17.80;71.60;;;;;;4982039;28;20035;-65
2022/06/18 04:54:25;;;;;;;3.13;2.67;;;17.90;72.00;;;;;;4981828;28;20094;-64
2022/06/18 04:56:50;;;;;;;4.37;2.80;;;18.00;72.60;;;;;;4980991;28;20030;-65
2022/06/18 04:59:16;;;;;;;6.87;3.20;;;18.00;71.10;;;;;;4981938;28;20041;-65
2022/06/18 05:01:42;;;;;;;3.47;2.53;;;18.00;70.90;;;;;;4981417;28;20109;-65
2022/06/18 05:04:08;;;;;;;3.53;2.10;;;18.00;70.10;;;;;;4981693;28;20026;-65
2022/06/18 05:06:35;;;;;;;3.97;2.58;;;18.00;68.70;;;;;;4981446;28;20034;-65
2022/06/18 05:09:00;;;;;;;4.95;2.45;;;18.00;68.60;;;;;;4982112;28;20225;-65
2022/06/18 05:11:26;;;;;;;4.67;2.50;;;18.00;68.40;;;;;;4981995;28;20022;-66
2022/06/18 05:13:52;;;;;;;6.23;2.40;;;18.00;68.50;;;;;;4981595;28;20241;-66
2022/06/18 05:16:18;;;;;;;8.47;2.90;;;18.00;67.90;;;;;;4981858;28;20082;-65
2022/06/18 05:18:45;;;;;;;4.03;2.37;;;18.10;67.80;;;;;;4981734;28;20034;-66
2022/06/18 05:21:11;;;;;;;2.53;2.33;;;18.00;67.50;;;;;;4981633;28;20027;-66
2022/06/18 05:23:37;;;;;;;5.20;2.67;;;18.10;69.00;;;;;;4981577;28;20230;-66
2022/06/18 05:26:05;;;;;;;6.10;3.20;;;18.10;67.70;;;;;;4984665;28;20438;-66
2022/06/18 05:28:31;;;;;;;3.75;2.88;;;18.20;67.70;;;;;;4985676;28;20019;-66
2022/06/18 05:30:56;;;;;;;6.83;2.67;;;18.20;67.70;;;;;;4985567;28;20073;-66
2022/06/18 05:33:22;;;;;;;4.60;3.10;;;18.20;68.80;;;;;;4985466;28;20027;-66
2022/06/18 05:35:48;;;;;;;3.47;2.60;;;18.30;67.70;;;;;;4985392;28;20034;-66
2022/06/18 05:38:19;;;;;;;4.63;2.63;;;18.30;67.50;;;;;;4985263;28;20081;-66
2022/06/18 05:40:45;;;;;;;7.10;2.83;;;18.40;67.80;;;;;;4985471;28;20035;-65
2022/06/18 05:43:11;;;;;;;4.47;2.73;;;18.50;66.80;;;;;;4985194;28;20054;-66
2022/06/18 05:45:37;;;;;;;4.23;2.87;;;18.60;67.10;;;;;;4965144;28;20225;-66
2022/06/18 05:48:03;;;;;;;3.65;2.90;;;18.60;66.50;;;;;;4962865;28;20270;-66
2022/06/18 05:50:29;;;;;;;5.85;2.80;;;18.60;66.70;;;;;;4976517;28;20030;-66
2022/06/18 05:52:54;;;;;;;4.30;2.70;;;18.70;66.50;;;;;;4967719;28;20099;-67
2022/06/18 05:55:21;;;;;;;3.27;2.50;;;18.80;66.60;;;;;;4985234;28;20019;-66
2022/06/18 05:57:52;;;;;;;5.00;2.83;;;18.80;67.00;;;;;;4985145;28;20057;-66
2022/06/18 06:00:22;;;;;;;5.93;2.67;;;18.90;68.30;;;;;;4985012;28;20108;-66
2022/06/18 06:02:48;;;;;;;2.92;2.65;;;19.00;68.90;;;;;;4976801;28;20129;-66
2022/06/18 06:05:14;;;;;;;3.97;2.10;;;19.00;69.20;;;;;;4973279;28;20306;-66
2022/06/18 06:07:41;;;;;;;2.92;2.58;;;19.10;68.10;;;;;;4965295;29;20090;-66
2022/06/18 06:13:22;;;;;;;7.20;3.00;;;19.20;65.80;;;;;;4972095;28;20026;-66
2022/06/18 06:15:48;;;;;;;5.90;2.97;;;19.30;65.20;;;;;;4984925;28;20030;-65
2022/06/18 06:18:16;;;;;;;5.43;3.08;;;19.40;65.50;;;;;;4984638;28;20101;-65
2022/06/18 06:20:44;;;;;;;6.60;2.80;;;19.50;65.40;;;;;;4987082;28;20163;-66
2022/06/18 06:23:11;;;;;;;3.72;2.92;;;19.60;65.70;;;;;;4990769;28;20236;-66
2022/06/18 06:25:37;;;;;;;;;;;19.60;65.40;;;;;;4963153;28;20022;-66
2022/06/18 06:28:04;;;;;;;12.00;2.67;;;19.70;65.30;;;;;;5004066;28;20104;-67
2022/06/18 06:30:29;;;;;;;5.03;2.63;;;19.80;65.40;;;;;;5004187;28;20064;-66
2022/06/18 06:32:55;;;;;;;6.10;2.80;;;19.90;64.60;;;;;;5003644;28;20053;-66
2022/06/18 06:35:21;;;;;;;6.17;2.70;;;20.00;65.20;;;;;;4986639;28;20014;-65
2022/06/18 06:37:47;;;;;;;2.80;2.50;;;20.10;64.40;;;;;;5003692;28;20038;-66
2022/06/18 06:40:17;;;;;;;4.63;2.93;;;20.10;64.60;;;;;;4999429;28;20023;-65
2022/06/18 06:42:48;;;;;;;4.82;2.50;;;20.20;64.70;;;;;;4984926;28;20022;-64
2022/06/18 06:45:20;;;;;;;6.68;3.38;;;20.30;64.90;;;;;;4991467;28;20030;-65
2022/06/18 06:47:46;;;;;;;5.88;2.60;;;20.40;64.40;;;;;;4990957;28;20015;-64
2022/06/18 06:50:14;;;;;;;4.28;2.92;;;20.50;64.60;;;;;;4958489;28;20027;-64
2022/06/18 06:52:40;;;;;;;5.97;3.50;;;20.50;64.10;;;;;;4975197;28;20030;-65
2022/06/18 06:57:58;;;;;;;9.60;3.88;;;20.80;63.80;;;;;;4978713;28;20089;-67
2022/06/18 07:00:23;;;;;;;3.50;2.93;;;20.90;63.30;;;;;;4983730;28;20038;-67
2022/06/18 07:02:49;;;;;;;3.53;3.07;;;21.00;63.90;;;;;;4983577;28;20296;-67
2022/06/18 07:05:15;;;;;;;3.77;3.17;;;21.10;62.90;;;;;;4983647;28;20230;-70
2022/06/18 07:07:41;;;;;;;8.07;3.63;;;21.20;62.30;;;;;;4983558;28;20019;-67
2022/06/18 07:10:08;;;;;;;7.73;3.10;;;21.30;62.40;;;;;;4983703;28;20368;-68
2022/06/18 07:12:34;;;;;;;3.95;3.03;;;21.30;61.90;;;;;;4965787;28;20288;-66
2022/06/18 07:15:00;;;;;;;5.18;3.20;;;21.50;62.30;;;;;;4984696;28;20074;-65
2022/06/18 07:17:28;;;;;;;9.67;4.23;;;21.50;62.30;;;;;;4985903;28;20031;-65
2022/06/18 07:19:53;;;;;;;9.27;3.72;;;21.60;62.40;;;;;;4994331;28;20037;-66
2022/06/18 07:22:19;;;;;;;4.87;3.20;;;21.60;62.80;;;;;;5002658;28;20022;-65
2022/06/18 07:24:45;;;;;;;5.40;3.37;;;21.70;64.20;;;;;;4988437;28;20095;-65
2022/06/18 07:27:11;;;;;;;5.20;3.33;;;21.80;62.60;;;;;;4964050;29;20031;-65
2022/06/18 07:29:37;;;;;;;4.67;3.37;;;21.80;63.40;;;;;;4964974;29;20095;-65
2022/06/18 07:32:14;;;;;;;9.97;4.53;;;21.90;62.90;;;;;;4964597;29;20031;-65
2022/06/18 07:34:40;;;;;;;5.05;3.88;;;22.00;60.60;;;;;;4947365;29;20033;-65
2022/06/18 07:37:06;;;;;;;3.43;3.07;;;22.10;60.00;;;;;;4964183;28;20027;-65
2022/06/18 07:39:31;;;;;;;4.63;3.20;;;22.30;59.90;;;;;;4975363;28;20018;-65
2022/06/18 07:41:57;;;;;;;5.60;3.40;;;22.40;61.30;;;;;;4976759;28;20058;-66
2022/06/18 07:44:23;;;;;;;5.93;3.37;;;22.40;60.30;;;;;;4984684;28;20042;-66
2022/06/18 07:46:51;;;;;;;7.60;3.72;;;22.50;60.60;;;;;;4984319;28;20077;-66
2022/06/18 07:49:17;;;;;;;4.50;3.13;;;22.60;61.70;;;;;;4983013;28;20229;-65
2022/06/18 07:51:43;;;;;;;3.55;3.15;;;22.60;60.50;;;;;;4982950;28;20344;-65
2022/06/18 07:54:13;;;;;;;5.05;3.88;;;22.70;60.80;;;;;;4980924;28;20077;-65
2022/06/18 07:56:38;;;;;;;6.15;3.55;;;22.90;59.70;;;;;;4966462;28;20030;-66
2022/06/18 07:59:04;;;;;;;5.63;3.33;;;23.00;58.80;;;;;;4982969;28;20027;-65
2022/06/18 08:01:30;;;;;;;3.93;3.10;;;23.10;59.00;;;;;;4982773;28;20221;-65
2022/06/18 08:03:56;;;;;;;4.30;3.60;;;23.20;58.60;;;;;;4982396;28;20027;-65
2022/06/18 08:06:21;;;;;;;4.80;3.87;;;23.30;59.30;;;;;;4982600;28;20317;-65
2022/06/18 08:08:47;;;;;;;4.50;3.30;;;23.30;59.90;;;;;;4981413;28;20029;-65
2022/06/18 08:11:15;;;;;;;4.37;3.60;;;23.30;62.00;;;;;;4989713;28;20277;-64
2022/06/18 08:13:41;;;;;;;4.30;3.53;;;23.30;60.00;;;;;;4963204;28;20022;-63
2022/06/18 08:16:08;;;;;;;4.10;3.70;;;23.40;59.60;;;;;;4990314;28;20058;-63
2022/06/18 08:18:34;;;;;;;6.28;3.55;;;23.50;60.40;;;;;;4992724;28;20229;-64
2022/06/18 08:21:21;;;;;;;5.22;3.88;;;23.50;61.50;;;;;;4993481;28;20022;-63
2022/06/18 08:23:47;;;;;;;4.07;3.40;;;23.60;59.70;;;;;;4970301;28;20361;-64
2022/06/18 08:26:12;;;;;;;3.83;3.43;;;23.70;60.40;;;;;;4974692;28;20138;-63
2022/06/18 08:28:38;;;;;;;7.77;3.60;;;23.70;60.50;;;;;;4982263;28;20309;-64
2022/06/18 08:31:05;;;;;;;6.15;3.78;;;23.80;59.50;;;;;;4981152;28;20248;-64
2022/06/18 08:33:31;;;;;;;5.18;3.47;;;23.90;59.50;;;;;;4980898;28;20041;-64
2022/06/18 08:35:59;;;;;;;4.10;3.57;;;24.00;58.60;;;;;;4982018;28;20027;-64
2022/06/18 08:38:24;;;;;;;3.88;3.20;;;24.10;58.60;;;;;;4964698;28;20270;-63
2022/06/18 08:41:11;;;;;;;3.33;3.03;;;24.20;59.10;;;;;;4982165;28;20049;-63
2022/06/18 08:44:17;;;;;;;6.03;3.40;;;24.20;58.10;;;;;;4980664;28;20603;-64
2022/06/18 08:47:09;;;;;;;4.95;2.80;;;24.40;58.10;;;;;;4964961;28;20159;-64
2022/06/18 08:50:20;;;;;;;2.55;2.35;;;24.60;56.60;;;;;;4951588;28;20023;-63
2022/06/18 08:53:39;;;;;;;3.35;2.47;;;24.80;56.10;;;;;;4953907;29;20047;-63
2022/06/18 08:56:13;;;;;;;2.20;2.00;;;24.90;55.20;;;;;;4982814;28;20229;-64
2022/06/18 08:59:06;;;;;;;3.97;2.35;;;25.20;52.70;;;;;;4960754;28;20089;-64
2022/06/18 09:01:37;;;;;;;3.85;2.50;;;25.40;53.90;;;;;;4995985;28;20023;-64
2022/06/18 09:04:26;;;;;;;5.95;2.40;;;25.40;52.60;;;;;;4966409;28;20081;-64
2022/06/18 09:06:58;;;;;;;4.60;2.47;;;25.50;51.80;;;;;;4969589;28;20230;-64
2022/06/18 09:09:56;;;;;;;2.70;2.50;;;25.70;51.00;;;;;;4988190;28;20026;-64
2022/06/18 09:12:55;;;;;;;3.33;2.47;;;25.70;51.50;;;;;;4955662;28;20154;-64
2022/06/18 09:15:28;;;;;;;2.97;2.50;;;25.70;52.40;;;;;;4968736;28;20032;-64
2022/06/18 09:18:06;;;;;;;6.22;2.30;;;25.70;52.60;;;;;;4982108;28;20156;-64
2022/06/18 09:20:48;;;;;;;3.92;2.28;;;25.60;52.20;;;;;;4989272;28;20313;-64
2022/06/18 09:23:20;;;;;;;6.22;2.53;;;25.70;53.10;;;;;;4971624;28;20034;-64
2022/06/18 09:25:49;;;;;;;3.83;2.35;;;25.70;52.00;;;;;;4935668;28;20069;-64
2022/06/18 09:28:24;;;;;;;3.78;2.25;;;25.80;51.30;;;;;;4960343;28;20032;-64
2022/06/18 09:31:38;;;;;;;3.67;2.33;;;25.90;50.60;;;;;;4986522;28;20095;-64
2022/06/18 09:34:18;;;;;;;5.95;2.47;;;26.10;51.40;;;;;;4951057;29;20042;-64
2022/06/18 09:36:46;;;;;;;5.47;2.33;;;26.10;50.00;;;;;;4948712;29;20046;-64
2022/06/18 09:39:20;;;;;;;2.60;2.38;;;26.20;50.60;;;;;;4948499;29;20045;-64
2022/06/18 09:42:25;;;;;;;2.20;1.85;;;26.10;51.00;;;;;;4964749;29;20027;-64
2022/06/18 09:45:05;;;;;;;3.33;2.13;;;26.20;49.10;;;;;;4983683;28;20035;-70
2022/06/18 09:47:42;;;;;;;3.25;2.20;;;26.30;48.20;;;;;;4991952;28;20018;-69
2022/06/18 09:50:19;;;;;;;4.55;2.58;;;26.50;49.70;;;;;;4956979;28;20038;-68
2022/06/18 09:52:49;;;;;;;3.95;2.20;;;26.50;49.30;;;;;;4971451;28;20034;-70
2022/06/18 09:55:21;;;;;;;3.97;2.42;;;26.70;47.80;;;;;;4987537;28;20041;-69
2022/06/18 09:57:50;;;;;;;3.15;1.80;;;26.80;47.50;;;;;;4978782;28;20026;-69
2022/06/18 10:00:20;;;;;;;5.13;2.40;;;26.90;47.50;;;;;;4956578;28;20022;-68
2022/06/18 10:03:12;;;;;;;2.35;1.88;;;26.90;47.10;;;;;;4951549;28;20246;-68
2022/06/18 10:08:34;;;;;;;2.53;1.70;;;27.10;44.00;;;;;;4970623;28;20041;-70
2022/06/18 10:11:07;;;;;;;4.82;2.15;;;27.30;45.20;;;;;;4971992;28;20044;-69
2022/06/18 10:13:43;;;;;;;2.72;1.80;;;27.30;44.80;;;;;;4965002;28;20313;-71
2022/06/18 10:16:34;;;;;;;3.53;2.00;;;27.50;44.60;;;;;;4990072;28;20265;-70
2022/06/18 10:19:14;;;;;;;2.45;2.15;;;27.50;44.50;;;;;;4933499;29;20106;-70
2022/06/18 10:21:58;;;;;;;2.17;1.70;;;27.50;46.00;;;;;;4932361;29;20031;-71
2022/06/18 10:24:37;;;;;;;3.03;2.13;;;27.70;45.10;;;;;;4934532;29;20326;-69
2022/06/18 10:27:26;;;;;;;4.47;2.20;;;27.70;44.90;;;;;;4917958;29;20235;-75
2022/06/18 10:30:02;;;;;;;2.65;2.05;;;27.90;45.20;;;;;;4950484;29;20286;-75
2022/06/18 10:33:02;;;;;;;1.92;1.55;;;27.90;45.10;;;;;;4965439;29;20041;-71
2022/06/18 10:35:56;;;;;;;3.15;2.10;;;28.00;44.30;;;;;;4950736;29;20345;-68
2022/06/18 10:39:15;;;;;;;3.25;1.98;;;28.10;43.80;;;;;;4938430;29;20060;-68
2022/06/18 10:42:24;;;;;;;4.38;1.58;;;28.20;43.80;;;;;;4951481;29;20055;-69
2022/06/18 10:45:33;;;;;;;1.65;1.52;;;28.30;44.20;;;;;;4964638;29;20363;-65
2022/06/18 10:47:59;;;;;;;2.45;1.80;;;28.20;43.80;;;;;;4947522;29;20035;-65
2022/06/18 10:50:25;;;;;;;3.25;1.60;;;28.20;43.30;;;;;;4964644;29;20195;-65
2022/06/18 10:53:04;;;;;;;3.25;1.90;;;28.20;41.50;;;;;;4946887;29;20234;-65
2022/06/18 10:55:30;;;;;;;3.58;1.50;;;28.20;41.80;;;;;;4964593;29;20047;-65
2022/06/18 10:58:12;;;;;;;3.17;2.00;;;28.20;42.10;;;;;;4975070;28;20210;-65
2022/06/18 11:00:38;;;;;;;2.35;1.65;;;28.20;41.20;;;;;;4989080;28;20349;-65
2022/06/18 11:03:13;;;;;;;4.00;1.45;;;28.20;42.60;;;;;;4995858;28;20053;-65
2022/06/18 11:05:39;;;;;;;10.13;1.95;;;28.30;42.50;;;;;;4962766;28;20142;-65
2022/06/18 11:08:21;;;;;;;2.95;1.38;;;28.40;41.20;;;;;;4969329;28;20019;-65
2022/06/18 11:11:07;;;;;;;4.13;1.63;;;28.50;42.40;;;;;;4985922;28;20101;-66
2022/06/18 11:13:39;;;;;;;4.28;1.98;;;28.60;42.20;;;;;;4955166;28;20023;-65
2022/06/18 11:16:25;;;;;;;4.13;2.30;;;28.80;41.90;;;;;;4965956;28;20022;-65
2022/06/18 11:19:01;;;;;;;5.95;1.80;;;28.80;43.60;;;;;;4983383;28;20018;-65
2022/06/18 11:21:31;;;;;;;3.47;1.53;;;28.80;42.90;;;;;;4965802;28;20119;-64
2022/06/18 11:24:13;;;;;;;4.38;1.73;;;29.00;41.80;;;;;;4948729;28;20034;-65
2022/06/18 11:27:02;;;;;;;3.75;1.80;;;29.30;40.50;;;;;;4983300;28;20041;-64
2022/06/18 11:29:42;;;;;;;5.55;1.70;;;29.40;42.80;;;;;;4966662;28;20015;-64
2022/06/18 11:32:15;;;;;;;5.72;2.20;;;29.50;40.10;;;;;;4977109;28;20026;-65
2022/06/18 11:34:44;;;;;;;4.57;1.65;;;29.80;40.30;;;;;;4986169;28;20037;-65
2022/06/18 11:37:27;;;;;;;7.43;1.90;;;29.90;39.20;;;;;;4985236;28;20022;-64
2022/06/18 11:40:18;;;;;;;8.38;1.40;;;30.10;40.00;;;;;;5002663;28;20069;-65
2022/06/18 11:42:56;;;;;;;6.88;1.52;;;30.20;39.30;;;;;;4998430;28;20096;-64
2022/06/18 11:45:50;;;;;;;10.80;2.67;;;30.30;40.50;;;;;;4962300;29;20031;-64
2022/06/18 11:48:40;;;;;;;6.32;1.73;;;30.40;39.30;;;;;;4962258;29;20023;-65
2022/06/18 11:51:36;;;;;;;8.30;2.25;;;30.50;40.00;;;;;;4964184;28;20150;-66
2022/06/18 11:54:41;;;;;;;3.42;1.77;;;30.50;39.00;;;;;;4985230;28;20023;-65
2022/06/18 11:57:33;;;;;;;6.65;2.15;;;30.60;40.00;;;;;;4986047;28;20037;-65
2022/06/18 12:00:06;;;;;;;12.15;2.22;;;30.60;41.10;;;;;;4980871;28;20062;-65
2022/06/18 12:02:41;;;;;;;6.28;2.10;;;30.60;40.10;;;;;;4992115;28;20089;-65
2022/06/18 12:05:34;;;;;;;6.75;1.90;;;30.70;39.80;;;;;;4992201;28;20034;-66
2022/06/18 12:08:01;;;;;;;5.20;1.92;;;30.70;41.60;;;;;;4961868;28;20034;-65
2022/06/18 12:11:33;;;;;;;7.75;1.60;;;30.80;40.90;;;;;;4968876;28;20025;-65
2022/06/18 12:14:36;;;;;;;10.40;2.38;;;31.00;39.90;;;;;;4929275;29;20362;-65
2022/06/18 12:17:43;;;;;;;7.03;2.00;;;31.40;38.10;;;;;;4861011;29;20032;-65
2022/06/18 12:20:14;;;;;;;5.40;2.03;;;31.60;38.30;;;;;;4968228;28;20046;-65
2022/06/18 12:22:54;;;;;;;6.70;2.00;;;31.70;39.10;;;;;;4982017;28;20098;-65
2022/06/18 12:26:33;;;;;;;7.18;2.40;;;31.70;39.00;;;;;;4982040;28;20026;-65
2022/06/18 12:29:38;;;;;;;8.57;2.33;;;31.80;39.50;;;;;;4939149;28;20043;-66
2022/06/18 12:32:27;;;;;;;7.90;2.20;;;32.10;41.70;;;;;;4952317;28;20047;-66
2022/06/18 12:35:21;;;;;;;10.88;2.47;;;32.20;38.50;;;;;;4963570;28;20230;-65
2022/06/18 12:38:06;;;;;;;10.75;2.53;;;32.30;38.00;;;;;;4968082;28;20019;-66
2022/06/18 12:40:57;;;;;;;9.57;2.60;;;32.40;38.80;;;;;;5000090;28;20072;-66
2022/06/18 12:43:29;;;;;;;8.77;2.33;;;32.50;38.00;;;;;;4971950;28;20038;-65
2022/06/18 12:46:18;;;;;;;10.27;2.50;;;32.70;37.80;;;;;;4946025;29;20034;-66
2022/06/18 12:49:03;;;;;;;11.25;2.72;;;32.70;39.00;;;;;;4945379;29;20129;-65
2022/06/18 12:51:49;;;;;;;8.38;2.63;;;32.80;36.60;;;;;;4962540;29;20042;-65
2022/06/18 12:54:42;;;;;;;7.55;2.30;;;32.90;40.00;;;;;;4932084;29;20027;-66
2022/06/18 12:57:54;;;;;;;7.85;2.58;;;33.00;38.80;;;;;;4962794;29;20023;-66
2022/06/18 13:00:51;;;;;;;8.23;2.55;;;33.10;39.90;;;;;;4964708;28;20019;-66
2022/06/18 13:03:43;;;;;;;10.25;2.35;;;33.30;37.40;;;;;;4981737;28;20090;-66
2022/06/18 13:06:18;;;;;;;17.98;3.33;;;33.40;38.50;;;;;;4979514;28;20101;-65
2022/06/18 13:09:26;;;;;;;10.88;2.55;;;33.50;37.80;;;;;;4981729;28;20026;-65
2022/06/18 13:12:02;;;;;;;10.10;2.10;;;33.70;37.50;;;;;;4962634;29;20023;-65
2022/06/18 13:15:18;;;;;;;6.57;2.00;;;33.80;37.50;;;;;;4957201;28;20023;-65
2022/06/18 13:17:54;;;;;;;11.35;2.05;;;33.90;37.40;;;;;;4966749;28;20082;-65
2022/06/18 13:20:34;;;;;;;9.65;2.25;;;34.10;39.60;;;;;;4948936;28;20034;-66
2022/06/18 13:22:59;;;;;;;12.02;2.33;;;34.20;36.50;;;;;;4933412;28;20031;-66
2022/06/18 13:28:27;;;;;;;10.65;2.40;;;34.50;38.90;;;;;;4981587;28;19925;-66
2022/06/18 13:31:28;;;;;;;11.23;2.38;;;34.70;37.50;;;;;;4974793;28;20024;-66
2022/06/18 13:33:56;;;;;;;9.30;2.75;;;34.90;37.30;;;;;;4946652;28;20237;-66
2022/06/18 13:36:40;;;;;;;4.60;1.90;;;35.30;36.00;;;;;;4988519;28;20310;-66
2022/06/18 13:39:25;;;;;;;8.27;2.85;;;35.50;36.90;;;;;;4990795;28;20082;-66
2022/06/18 13:42:04;;;;;;;10.50;3.17;;;35.70;35.30;;;;;;4974768;28;20022;-66